createdAt,value
2023-08-12T00:00:44.468Z,18.16
2023-08-12T00:03:11.305Z,18.03
2023-08-12T00:05:41.185Z,18.09
2023-08-12T00:08:07.893Z,17.82
2023-08-12T00:10:36.780Z,18.20
2023-08-12T00:13:05.791Z,18.17
2023-08-12T00:15:32.528Z,18.24
2023-08-12T00:17:59.229Z,18.25
2023-08-12T00:20:25.941Z,18.26
2023-08-12T00:22:55.520Z,18.17
2023-08-12T00:25:22.190Z,18.29
2023-08-12T00:27:48.843Z,18.31
2023-08-12T00:30:18.094Z,18.22
2023-08-12T00:32:44.920Z,18.34
2023-08-12T00:35:11.664Z,18.35
2023-08-12T00:37:38.328Z,18.34
2023-08-12T00:40:05.987Z,18.38
2023-08-12T00:42:32.733Z,18.36
2023-08-12T00:44:59.476Z,18.14
2023-08-12T00:47:29.252Z,18.35
2023-08-12T00:49:58.380Z,18.29
2023-08-12T00:52:25.351Z,18.43
2023-08-12T00:54:54.108Z,18.33
2023-08-12T00:57:21.121Z,18.38
2023-08-12T00:59:50.133Z,18.46
2023-08-12T01:02:21.317Z,18.13
2023-08-12T01:04:48.172Z,18.15
2023-08-12T01:07:15.038Z,18.46
2023-08-12T01:09:44.964Z,18.30
2023-08-12T01:12:22.183Z,18.46
2023-08-12T01:15:10.283Z,18.48
2023-08-12T01:17:42.606Z,18.42
2023-08-12T01:20:15.827Z,17.94
2023-08-12T01:22:45.689Z,18.14
2023-08-12T01:25:14.573Z,18.47
2023-08-12T01:27:41.187Z,18.47
2023-08-12T01:30:11.851Z,18.47
2023-08-12T01:32:49.174Z,18.48
2023-08-12T01:35:33.507Z,18.48
2023-08-12T01:38:05.178Z,18.48
2023-08-12T01:40:34.353Z,18.43
2023-08-12T01:43:08.467Z,18.37
2023-08-12T01:45:35.902Z,18.49
2023-08-12T01:48:06.311Z,18.46
2023-08-12T01:50:32.974Z,18.49
2023-08-12T01:52:59.740Z,18.45
2023-08-12T01:55:26.697Z,18.49
2023-08-12T01:57:53.348Z,18.26
2023-08-12T02:00:20.035Z,18.41
2023-08-12T02:02:47.990Z,18.37
2023-08-12T02:05:15.933Z,18.40
2023-08-12T02:07:42.594Z,18.17
2023-08-12T02:10:09.847Z,18.29
2023-08-12T02:12:36.450Z,18.07
2023-08-12T02:15:03.438Z,18.17
2023-08-12T02:17:32.292Z,18.11
2023-08-12T02:20:01.376Z,18.07
2023-08-12T02:22:30.576Z,17.99
2023-08-12T02:24:57.258Z,17.90
2023-08-12T02:27:23.829Z,17.87
2023-08-12T02:29:50.432Z,17.81
2023-08-12T02:32:17.085Z,17.77
2023-08-12T02:34:48.538Z,17.73
2023-08-12T02:37:19.997Z,17.56
2023-08-12T02:39:46.667Z,17.64
2023-08-12T02:42:15.577Z,17.60
2023-08-12T02:44:42.266Z,17.53
2023-08-12T02:47:08.947Z,17.50
2023-08-12T02:49:38.683Z,17.52
2023-08-12T02:52:05.732Z,17.50
2023-08-12T02:54:35.293Z,17.38
2023-08-12T02:57:01.909Z,17.38
2023-08-12T02:59:28.541Z,17.39
2023-08-12T03:01:55.481Z,17.30
2023-08-12T03:04:23.867Z,17.16
2023-08-12T03:06:50.455Z,17.28
2023-08-12T03:09:19.469Z,17.25
2023-08-12T03:11:46.162Z,17.13
2023-08-12T03:14:13.196Z,17.21
2023-08-12T03:16:39.832Z,17.21
2023-08-12T03:19:08.751Z,17.20
2023-08-12T03:21:35.737Z,17.14
2023-08-12T03:24:02.410Z,17.11
2023-08-12T03:26:29.224Z,17.13
2023-08-12T03:28:58.152Z,17.17
2023-08-12T03:31:24.849Z,17.15
2023-08-12T03:33:51.520Z,16.74
2023-08-12T03:36:18.179Z,16.98
2023-08-12T03:38:44.850Z,17.08
2023-08-12T03:41:14.063Z,17.18
2023-08-12T03:43:40.688Z,16.78
2023-08-12T03:46:07.333Z,17.15
2023-08-12T03:48:34.031Z,17.18
2023-08-12T03:51:00.613Z,17.01
2023-08-12T03:53:29.462Z,17.16
2023-08-12T03:56:00.874Z,17.13
2023-08-12T03:58:27.548Z,17.01
2023-08-12T04:00:54.238Z,17.04
2023-08-12T04:03:21.004Z,16.82
2023-08-12T04:05:53.371Z,17.07
2023-08-12T04:08:26.693Z,17.07
2023-08-12T04:10:55.835Z,17.05
2023-08-12T04:13:22.466Z,16.93
2023-08-12T04:15:54.318Z,17.02
2023-08-12T04:18:21.527Z,17.01
2023-08-12T04:20:52.377Z,16.64
2023-08-12T04:23:21.752Z,16.91
2023-08-12T04:25:49.300Z,16.96
2023-08-12T04:28:19.564Z,16.73
2023-08-12T04:30:48.068Z,16.87
2023-08-12T04:33:15.386Z,16.87
2023-08-12T04:35:45.241Z,16.76
2023-08-12T04:38:11.923Z,16.73
2023-08-12T04:40:42.081Z,17.02
2023-08-12T04:43:14.682Z,17.03
2023-08-12T04:45:41.337Z,17.11
2023-08-12T04:48:09.741Z,17.17
2023-08-12T04:50:36.599Z,17.21
2023-08-12T04:53:07.976Z,17.17
2023-08-12T04:55:36.242Z,17.14
2023-08-12T04:58:03.952Z,17.22
2023-08-12T05:00:31.595Z,17.20
2023-08-12T05:02:58.469Z,17.32
2023-08-12T05:05:30.107Z,17.41
2023-08-12T05:07:59.762Z,17.17
2023-08-12T05:10:26.481Z,17.48
2023-08-12T05:12:55.449Z,17.41
2023-08-12T05:15:26.859Z,17.57
2023-08-12T05:17:55.772Z,17.58
2023-08-12T05:20:22.504Z,17.63
2023-08-12T05:22:51.440Z,17.48
2023-08-12T05:25:18.061Z,17.65
2023-08-12T05:27:44.950Z,17.71
2023-08-12T05:30:12.266Z,17.75
2023-08-12T05:32:41.216Z,17.64
2023-08-12T05:35:10.641Z,17.65
2023-08-12T05:37:42.328Z,17.67
2023-08-12T05:40:12.825Z,17.91
2023-08-12T05:42:41.793Z,17.99
2023-08-12T05:45:09.065Z,17.94
2023-08-12T05:47:38.163Z,18.13
2023-08-12T05:50:05.316Z,18.20
2023-08-12T05:52:32.079Z,18.09
2023-08-12T05:55:01.123Z,18.29
2023-08-12T05:57:29.670Z,18.34
2023-08-12T05:59:56.848Z,18.36
2023-08-12T06:02:23.655Z,18.40
2023-08-12T06:04:52.673Z,18.36
2023-08-12T06:07:19.636Z,18.55
2023-08-12T06:09:46.330Z,18.62
2023-08-12T06:12:15.323Z,18.40
2023-08-12T06:14:42.158Z,18.73
2023-08-12T06:17:11.248Z,18.81
2023-08-12T06:19:37.915Z,18.95
2023-08-12T06:22:04.673Z,19.06
2023-08-12T06:24:31.309Z,19.18
2023-08-12T06:26:58.085Z,19.20
2023-08-12T06:29:27.034Z,19.23
2023-08-12T06:31:56.913Z,19.60
2023-08-12T06:34:23.616Z,19.68
2023-08-12T06:36:54.699Z,19.74
2023-08-12T06:39:21.306Z,19.81
2023-08-12T06:41:52.189Z,19.87
2023-08-12T06:44:21.059Z,19.83
2023-08-12T06:46:47.714Z,20.16
2023-08-12T06:49:14.402Z,20.33
2023-08-12T06:51:41.002Z,20.44
2023-08-12T06:54:07.862Z,20.68
2023-08-12T06:56:34.753Z,21.10
2023-08-12T06:59:01.411Z,21.32
2023-08-12T07:01:30.365Z,21.53
2023-08-12T07:03:57.270Z,21.68
2023-08-12T07:06:28.839Z,22.44
2023-08-12T07:08:55.597Z,23.06
2023-08-12T07:11:22.323Z,23.78
2023-08-12T07:13:51.591Z,24.51
2023-08-12T07:16:20.703Z,25.24
2023-08-12T07:18:47.404Z,25.37
2023-08-12T07:21:14.143Z,25.23
2023-08-12T07:23:44.085Z,25.13
2023-08-12T07:26:15.503Z,25.21
2023-08-12T07:28:45.037Z,25.26
2023-08-12T07:31:13.918Z,26.19
2023-08-12T07:33:40.734Z,26.24
2023-08-12T07:36:09.926Z,26.25
2023-08-12T07:38:36.629Z,26.45
2023-08-12T07:41:05.811Z,27.39
2023-08-12T07:43:32.526Z,28.01
2023-08-12T07:46:09.425Z,28.40
2023-08-12T07:48:36.490Z,29.17
2023-08-12T07:51:03.401Z,29.69
2023-08-12T07:53:30.066Z,30.25
2023-08-12T07:55:59.195Z,30.74
2023-08-12T07:58:25.837Z,31.26
2023-08-12T08:00:57.093Z,31.55
2023-08-12T08:03:23.829Z,32.18
2023-08-12T08:05:55.004Z,32.31
2023-08-12T08:08:21.790Z,32.58
2023-08-12T08:10:51.556Z,32.92
2023-08-12T08:13:22.806Z,33.14
2023-08-12T08:15:49.530Z,33.27
2023-08-12T08:18:19.651Z,33.48
2023-08-12T08:20:48.595Z,33.82
2023-08-12T08:23:15.378Z,34.21
2023-08-12T08:25:45.027Z,34.48
2023-08-12T08:28:11.912Z,34.21
2023-08-12T08:30:38.870Z,33.74
2023-08-12T08:33:09.485Z,33.26
2023-08-12T08:35:36.312Z,32.86
2023-08-12T08:38:03.069Z,32.59
2023-08-12T08:40:29.742Z,32.00
2023-08-12T08:43:05.275Z,31.73
2023-08-12T08:45:33.911Z,32.09
2023-08-12T08:48:04.159Z,32.40
2023-08-12T08:50:34.988Z,32.52
2023-08-12T08:53:06.051Z,32.30
2023-08-12T08:55:33.324Z,32.16
2023-08-12T08:58:06.005Z,31.90
2023-08-12T09:00:35.888Z,31.60
2023-08-12T09:03:03.927Z,31.17
2023-08-12T09:05:32.074Z,30.99
2023-08-12T09:08:00.436Z,30.81
2023-08-12T09:10:29.669Z,30.76
2023-08-12T09:13:00.250Z,30.72
2023-08-12T09:15:27.424Z,30.78
2023-08-12T09:17:54.349Z,30.66
2023-08-12T09:20:22.353Z,30.81
2023-08-12T09:22:56.950Z,30.61
2023-08-12T09:25:25.704Z,30.87
2023-08-12T09:27:55.985Z,30.64
2023-08-12T09:30:23.449Z,30.14
2023-08-12T09:33:05.598Z,29.56
2023-08-12T09:35:42.857Z,29.30
2023-08-12T09:38:14.133Z,28.82
2023-08-12T09:40:41.199Z,27.95
2023-08-12T09:43:08.455Z,27.77
2023-08-12T09:45:38.816Z,27.39
2023-08-12T09:48:10.955Z,26.97
2023-08-12T09:50:42.329Z,26.67
2023-08-12T09:53:10.670Z,26.24
2023-08-12T09:55:42.561Z,25.84
2023-08-12T09:58:11.322Z,25.42
2023-08-12T10:00:38.330Z,25.08
2023-08-12T10:03:08.033Z,24.88
2023-08-12T10:05:35.404Z,24.62
2023-08-12T10:08:05.116Z,24.92
2023-08-12T10:10:33.997Z,24.92
2023-08-12T10:13:03.717Z,25.10
2023-08-12T10:15:31.100Z,25.25
2023-08-12T10:17:57.781Z,25.23
2023-08-12T10:20:26.018Z,25.21
2023-08-12T10:22:54.753Z,25.26
2023-08-12T10:25:36.816Z,25.06
2023-08-12T10:28:04.266Z,25.05
2023-08-12T10:30:34.230Z,25.19
2023-08-12T10:33:07.489Z,25.12
2023-08-12T10:36:10.839Z,25.31
2023-08-12T10:47:49.676Z,25.48
2023-08-12T10:50:26.149Z,25.58
2023-08-12T10:52:54.631Z,25.77
2023-08-12T10:55:29.259Z,25.72
2023-08-12T10:57:59.469Z,26.00
2023-08-12T11:00:30.532Z,25.97
2023-08-12T11:03:00.041Z,26.05
2023-08-12T11:05:40.313Z,25.83
2023-08-12T11:08:07.539Z,26.03
2023-08-12T11:10:41.095Z,26.08
2023-08-12T11:13:09.998Z,26.13
2023-08-12T11:15:47.325Z,26.10
2023-08-12T11:18:15.813Z,26.09
2023-08-12T11:20:42.805Z,26.04
2023-08-12T11:23:10.788Z,25.97
2023-08-12T11:25:39.717Z,25.84
2023-08-12T11:28:07.670Z,25.72
2023-08-12T11:30:34.647Z,25.60
2023-08-12T11:33:05.056Z,25.64
2023-08-12T11:35:31.846Z,25.05
2023-08-12T11:38:00.029Z,25.66
2023-08-12T11:40:28.346Z,25.71
2023-08-12T11:42:56.023Z,25.79
2023-08-12T11:45:25.197Z,25.72
2023-08-12T11:47:56.357Z,25.60
2023-08-12T11:50:28.025Z,25.34
2023-08-12T11:52:57.185Z,25.42
2023-08-12T11:55:27.714Z,25.62
2023-08-12T11:57:54.512Z,25.76
2023-08-12T12:00:21.613Z,25.77
2023-08-12T12:02:54.204Z,25.62
2023-08-12T12:05:25.390Z,25.00
2023-08-12T12:07:53.879Z,25.14
2023-08-12T12:10:23.419Z,25.11
2023-08-12T12:12:50.369Z,24.95
2023-08-12T12:15:17.290Z,24.93
2023-08-12T12:17:47.044Z,24.93
2023-08-12T12:20:15.477Z,24.75
2023-08-12T12:22:46.505Z,25.04
2023-08-12T12:25:17.488Z,25.10
2023-08-12T12:27:46.596Z,25.14
2023-08-12T12:30:14.669Z,25.34
2023-08-12T12:32:41.603Z,25.32
2023-08-12T12:35:08.853Z,25.54
2023-08-12T12:37:37.357Z,25.34
2023-08-12T12:40:05.348Z,25.78
2023-08-12T12:42:34.994Z,25.84
2023-08-12T12:45:01.689Z,25.87
2023-08-12T12:47:28.347Z,25.82
2023-08-12T12:49:58.186Z,25.92
2023-08-12T12:52:27.252Z,25.89
2023-08-12T12:54:54.095Z,25.77
2023-08-12T12:57:20.785Z,25.73
2023-08-12T12:59:50.415Z,25.56
2023-08-12T13:02:19.502Z,25.52
2023-08-12T13:04:46.258Z,25.64
2023-08-12T13:07:12.917Z,25.57
2023-08-12T13:09:42.371Z,25.44
2023-08-12T13:12:11.766Z,25.50
2023-08-12T13:14:38.727Z,25.29
2023-08-12T13:17:05.421Z,25.05
2023-08-12T13:19:32.222Z,24.92
2023-08-12T13:22:03.562Z,24.75
2023-08-12T13:24:32.760Z,24.52
2023-08-12T13:27:00.604Z,24.37
2023-08-12T13:29:31.557Z,24.12
2023-08-12T13:31:58.212Z,24.11
2023-08-12T13:34:26.927Z,24.03
2023-08-12T13:36:53.568Z,24.02
2023-08-12T13:39:20.363Z,24.03
2023-08-12T13:41:48.468Z,24.04
2023-08-12T13:44:15.098Z,24.00
2023-08-12T13:46:41.756Z,24.06
2023-08-12T13:49:08.372Z,24.17
2023-08-12T13:51:37.244Z,23.82
2023-08-12T13:54:04.261Z,24.19
2023-08-12T13:56:33.184Z,24.29
2023-08-12T13:59:02.068Z,24.10
2023-08-12T14:01:31.020Z,24.27
2023-08-12T14:03:57.692Z,24.23
2023-08-12T14:06:24.367Z,24.07
2023-08-12T14:08:51.058Z,24.03
2023-08-12T14:11:17.749Z,24.04
2023-08-12T14:13:44.444Z,24.11
2023-08-12T14:16:11.250Z,24.04
2023-08-12T14:18:40.228Z,24.10
2023-08-12T14:21:07.122Z,24.15
2023-08-12T14:23:33.826Z,24.16
2023-08-12T14:26:00.485Z,24.20
2023-08-12T14:28:27.149Z,24.03
2023-08-12T14:30:55.410Z,24.13
2023-08-12T14:33:24.384Z,24.02
2023-08-12T14:35:52.445Z,24.01
2023-08-12T14:38:19.090Z,23.83
2023-08-12T14:40:51.805Z,23.88
2023-08-12T14:43:18.607Z,23.89
2023-08-12T14:45:48.363Z,24.03
2023-08-12T14:48:19.334Z,24.07
2023-08-12T14:50:48.679Z,23.46
2023-08-12T14:53:15.403Z,24.00
2023-08-12T14:55:42.325Z,24.03
2023-08-12T14:58:11.998Z,24.16
2023-08-12T15:00:38.733Z,24.19
2023-08-12T15:03:05.799Z,24.21
2023-08-12T15:05:32.538Z,24.25
2023-08-12T15:08:03.332Z,24.23
2023-08-12T15:10:31.651Z,24.29
2023-08-12T15:12:58.425Z,24.08
2023-08-12T15:15:27.631Z,24.22
2023-08-12T15:17:56.560Z,24.20
2023-08-12T15:20:23.260Z,24.09
2023-08-12T15:22:50.960Z,24.14
2023-08-12T15:25:17.840Z,24.04
2023-08-12T15:27:45.064Z,24.13
2023-08-12T15:30:14.364Z,23.95
2023-08-12T15:32:43.076Z,24.01
2023-08-12T15:35:13.151Z,23.91
2023-08-12T15:37:42.255Z,23.81
2023-08-12T15:40:10.144Z,23.77
2023-08-12T15:42:39.335Z,23.70
2023-08-12T15:45:06.701Z,23.66
2023-08-12T15:47:36.859Z,23.62
2023-08-12T15:50:03.709Z,23.55
2023-08-12T15:52:34.097Z,23.59
2023-08-12T15:55:00.826Z,23.38
2023-08-12T15:57:30.973Z,23.59
2023-08-12T15:59:57.684Z,23.62
2023-08-12T16:02:24.419Z,23.62
2023-08-12T16:04:51.267Z,23.58
2023-08-12T16:07:19.710Z,23.62
2023-08-12T16:09:48.710Z,23.57
2023-08-12T16:12:20.122Z,23.55
2023-08-12T16:14:47.463Z,23.56
2023-08-12T16:17:16.659Z,23.39
2023-08-12T16:19:46.438Z,23.45
2023-08-12T16:22:14.463Z,23.29
2023-08-12T16:24:47.004Z,23.31
2023-08-12T16:27:14.285Z,23.25
2023-08-12T16:29:40.963Z,23.21
2023-08-12T16:32:08.081Z,23.19
2023-08-12T16:34:34.773Z,23.15
2023-08-12T16:37:20.346Z,23.11
2023-08-12T16:39:51.786Z,22.76
2023-08-12T16:42:22.675Z,22.73
2023-08-12T16:44:49.749Z,22.74
2023-08-12T16:47:16.473Z,22.88
2023-08-12T16:49:45.355Z,22.83
2023-08-12T16:52:14.001Z,22.35
2023-08-12T16:54:43.948Z,22.82
2023-08-12T16:57:13.503Z,22.81
2023-08-12T16:59:40.147Z,22.38
2023-08-12T17:02:07.136Z,22.76
2023-08-12T17:04:36.185Z,22.58
2023-08-12T17:07:03.295Z,22.69
2023-08-12T17:09:34.622Z,22.52
2023-08-12T17:12:02.949Z,22.61
2023-08-12T17:14:32.238Z,22.09
2023-08-12T17:16:59.008Z,22.50
2023-08-12T17:19:26.001Z,22.48
2023-08-12T17:21:53.043Z,22.41
2023-08-12T17:24:20.004Z,22.48
2023-08-12T17:26:49.046Z,22.47
2023-08-12T17:29:15.826Z,22.44
2023-08-12T17:31:44.890Z,22.39
2023-08-12T17:34:11.756Z,22.35
2023-08-12T17:36:38.587Z,22.29
2023-08-12T17:39:05.828Z,22.26
2023-08-12T17:41:37.021Z,22.20
2023-08-12T17:44:04.117Z,22.13
2023-08-12T17:46:30.850Z,22.07
2023-08-12T17:48:57.558Z,21.86
2023-08-12T17:51:27.313Z,22.01
2023-08-12T17:53:54.031Z,21.99
2023-08-12T17:56:22.978Z,21.96
2023-08-12T17:58:50.405Z,21.73
2023-08-12T18:01:17.293Z,21.78
2023-08-12T18:03:44.018Z,21.92
2023-08-12T18:06:10.847Z,21.73
2023-08-12T18:08:39.029Z,21.80
2023-08-12T18:11:05.808Z,21.73
2023-08-12T18:13:32.537Z,21.52
2023-08-12T18:16:02.755Z,21.59
2023-08-12T18:18:31.689Z,21.45
2023-08-12T18:20:58.742Z,21.05
2023-08-12T18:23:25.641Z,21.33
2023-08-12T18:25:54.501Z,21.26
2023-08-12T18:28:21.176Z,21.21
2023-08-12T18:30:47.911Z,21.14
2023-08-12T18:33:14.588Z,21.09
2023-08-12T18:35:43.489Z,21.05
2023-08-12T18:38:12.533Z,20.96
2023-08-12T18:40:41.659Z,20.93
2023-08-12T18:43:08.413Z,20.76
2023-08-12T18:45:35.100Z,20.83
2023-08-12T18:48:04.967Z,20.83
2023-08-12T18:50:31.985Z,20.76
2023-08-12T18:52:59.253Z,20.74
2023-08-12T18:55:28.565Z,20.66
2023-08-12T18:57:57.446Z,20.62
2023-08-12T19:00:24.638Z,20.53
2023-08-12T19:02:51.404Z,20.50
2023-08-12T19:05:18.261Z,20.46
2023-08-12T19:07:44.970Z,20.45
2023-08-12T19:10:11.792Z,20.08
2023-08-12T19:12:38.476Z,20.25
2023-08-12T19:15:09.941Z,20.18
2023-08-12T19:17:36.665Z,20.29
2023-08-12T19:20:06.393Z,20.23
2023-08-12T19:22:33.184Z,20.17
2023-08-12T19:25:02.143Z,20.12
2023-08-12T19:27:28.844Z,20.01
2023-08-12T19:29:55.580Z,20.06
2023-08-12T19:32:22.465Z,20.00
2023-08-12T19:34:49.148Z,19.93
2023-08-12T19:37:15.975Z,19.92
2023-08-12T19:39:42.615Z,19.47
2023-08-12T19:42:09.261Z,19.80
2023-08-12T19:44:36.032Z,19.79
2023-08-12T19:47:03.058Z,19.59
2023-08-12T19:49:30.338Z,19.72
2023-08-12T19:51:57.086Z,19.69
2023-08-12T19:54:23.997Z,19.64
2023-08-12T19:56:50.703Z,19.60
2023-08-12T19:59:17.371Z,18.82
2023-08-12T20:01:44.030Z,19.08
2023-08-12T20:04:10.806Z,19.39
2023-08-12T20:06:39.977Z,19.35
2023-08-12T20:09:10.544Z,19.30
2023-08-12T20:11:37.329Z,19.33
2023-08-12T20:14:04.271Z,19.11
2023-08-12T20:16:30.996Z,19.22
2023-08-12T20:18:57.900Z,19.19
2023-08-12T20:21:24.611Z,19.09
2023-08-12T20:23:53.381Z,18.95
2023-08-12T20:26:23.507Z,18.84
2023-08-12T20:28:50.375Z,19.03
2023-08-12T20:31:17.078Z,18.99
2023-08-12T20:33:43.760Z,18.96
2023-08-12T20:36:12.836Z,18.88
2023-08-12T20:38:39.503Z,18.90
2023-08-12T20:41:06.154Z,18.86
2023-08-12T20:43:33.003Z,18.86
2023-08-12T20:45:59.826Z,18.73
2023-08-12T20:48:26.604Z,18.85
2023-08-12T20:50:53.250Z,18.83
2023-08-12T20:53:20.065Z,18.66
2023-08-12T20:55:46.983Z,18.74
2023-08-12T20:58:13.622Z,18.73
2023-08-12T21:00:43.381Z,18.68
2023-08-12T21:03:10.801Z,18.79
2023-08-12T21:05:41.025Z,18.45
2023-08-12T21:08:07.961Z,18.77
2023-08-12T21:10:34.902Z,18.67
2023-08-12T21:13:01.526Z,18.65
2023-08-12T21:15:28.133Z,18.72
2023-08-12T21:17:55.545Z,18.64
2023-08-12T21:20:22.329Z,18.52
2023-08-12T21:22:52.097Z,18.15
2023-08-12T21:25:19.307Z,18.48
2023-08-12T21:27:45.929Z,18.58
2023-08-12T21:30:12.921Z,18.61
2023-08-12T21:32:39.680Z,18.56
2023-08-12T21:35:11.769Z,18.62
2023-08-12T21:37:38.400Z,18.59
2023-08-12T21:40:05.635Z,18.57
2023-08-12T21:42:34.766Z,18.37
2023-08-12T21:45:04.149Z,18.51
2023-08-12T21:47:30.989Z,18.62
2023-08-12T21:49:57.721Z,18.54
2023-08-12T21:52:24.479Z,18.61
2023-08-12T21:54:51.164Z,18.62
2023-08-12T21:57:17.917Z,18.62
2023-08-12T21:59:44.557Z,18.61
2023-08-12T22:02:12.026Z,18.61
2023-08-12T22:04:39.038Z,18.59
2023-08-12T22:07:07.091Z,18.55
2023-08-12T22:09:36.046Z,18.50
2023-08-12T22:12:02.824Z,18.55
2023-08-12T22:14:30.448Z,18.52
2023-08-12T22:16:58.949Z,18.37
2023-08-12T22:19:28.926Z,18.41
2023-08-12T22:22:13.100Z,18.42
2023-08-12T22:24:47.722Z,18.39
2023-08-12T22:27:16.669Z,18.04
2023-08-12T22:29:43.333Z,18.31
2023-08-12T22:32:11.139Z,18.29
2023-08-12T22:34:40.242Z,18.19
2023-08-12T22:37:07.015Z,18.24
2023-08-12T22:39:36.331Z,17.97
2023-08-12T22:42:03.021Z,17.95
2023-08-12T22:44:29.715Z,18.19
2023-08-12T22:46:58.942Z,18.07
2023-08-12T22:49:25.593Z,18.06
2023-08-12T22:51:52.351Z,17.81
2023-08-12T22:54:21.280Z,18.09
2023-08-12T22:56:50.397Z,17.96
2023-08-12T22:59:19.035Z,18.14
2023-08-12T23:01:45.928Z,18.15
2023-08-12T23:04:15.037Z,18.05
2023-08-12T23:06:41.674Z,18.15
2023-08-12T23:09:08.370Z,17.87
2023-08-12T23:11:35.068Z,18.07
2023-08-12T23:14:01.683Z,18.04
2023-08-12T23:16:30.756Z,18.16
2023-08-12T23:18:57.523Z,18.17
2023-08-12T23:21:26.700Z,18.20
2023-08-12T23:23:53.317Z,18.16
2023-08-12T23:26:19.968Z,18.23
2023-08-12T23:28:46.656Z,18.17
2023-08-12T23:31:13.344Z,18.19
2023-08-12T23:33:42.336Z,18.28
2023-08-12T23:36:13.902Z,18.28
2023-08-12T23:38:40.542Z,18.05
2023-08-12T23:41:09.759Z,18.29
2023-08-12T23:43:36.535Z,18.22
2023-08-12T23:46:07.989Z,18.13
2023-08-12T23:48:36.929Z,18.33
2023-08-12T23:51:05.821Z,18.00
2023-08-12T23:53:32.583Z,18.28
2023-08-12T23:55:59.355Z,18.26
2023-08-12T23:58:28.277Z,18.34
